Flight Track Log - Related Links

Times and Time Zones

All times are in EDT time to prevent confusion due to time zone crossing. See the ZK-PBG flight status page for this flight to view local times or setup timezone preferences in your user account.

Time Position Orientation Groundspeed Altitude Reporting Facility
EDT Latitude Longitude Course Direction KTS MPH feet Rate Location/Type
Mon 06:45:57 PM -33.9752 151.1952 148° Southeast 162 186 500  Level Aus
Mon 06:46:23 PM -33.9910 151.2070 125° Southeast 176 203 1,300 1,696 Climbing FlightAware
Mon 06:46:43 PM -34.0030 151.2230 132° Southeast 188 216 1,800 1,745 Climbing FlightAware
Mon 06:47:18 PM -34.0290 151.2530 136° Southeast 226 260 2,900 2,308 Climbing FlightAware
Mon 06:47:48 PM -34.0500 151.2850 128° Southeast 248 285 4,300 3,375 Climbing FlightAware
Mon 06:48:06 PM -34.0483 151.3131 128° Southeast 253 291 5,600 2,600 Climbing Aus
Mon 06:48:18 PM -34.0410 151.3240 128° Southeast 268 308 5,600 2,270 Level FlightAware
Mon 06:48:43 PM -34.0180 151.3500 43° Northeast 265 305 7,000 3,150 Climbing FlightAware
Mon 06:48:58 PM -34.0040 151.3650 42° Northeast 266 306 7,700 2,800 Climbing FlightAware
Mon 06:49:28 PM -33.9760 151.3940 41° Northeast 280 322 9,100 2,700 Climbing FlightAware
Mon 06:49:58 PM -33.9480 151.4240 42° Northeast 287 330 10,400 2,618 Climbing FlightAware
Mon 06:50:23 PM -33.9300 151.4570 57° Northeast 291 335 11,500 2,550 Climbing FlightAware
Mon 06:50:38 PM -33.9280 151.4780 83° East 293 337 12,100 3,600 Climbing FlightAware
Mon 06:50:58 PM -33.9266 151.5237 83° East 298 343 13,600 3,429 Climbing Aus
Mon 06:51:13 PM -33.9257 151.5490 87° East 301 346 14,100  Climbing Aus
Mon 06:51:18 PM -33.9260 151.5480 87° East 313 360 13,600 789 Descending FlightAware
Mon 06:51:51 PM -33.9231 151.6203 87° East 331 381 14,600 1,050 Climbing Aus
Mon 06:51:58 PM -33.9230 151.6230 87° East 358 412 14,300 1,615 Descending FlightAware
Mon 06:52:43 PM -33.9200 151.7170 88° East 374 430 16,000 2,769 Climbing FlightAware
Mon 06:53:03 PM -33.9176 151.7686 88° East 374 430 17,300 2,400 Climbing Aus
Mon 06:53:23 PM -33.9170 151.8030 88° East 383 441 17,600 2,571 Climbing FlightAware
Mon 06:53:38 PM -33.9151 151.8432 88° East 382 440 18,800 2,229 Climbing Aus
Mon 06:53:58 PM -33.9140 151.8740 88° East 389 448 18,900 2,082 Climbing FlightAware
Mon 06:54:27 PM -33.9110 151.9522 88° East 394 453 20,500 2,160 Climbing Aus
Mon 06:54:48 PM -33.9100 151.9880 88° East 401 461 20,700 1,377 Climbing FlightAware
Mon 06:55:28 PM -33.9060 152.0790 87° East 411 473 21,900 2,261 Climbing FlightAware
Mon 06:55:57 PM -33.9071 152.1559 87° East 411 473 23,300 1,800 Climbing Aus
Mon 06:56:08 PM -33.9070 152.1680 87° East 419 482 23,100 1,714 Descending FlightAware
Mon 06:56:32 PM -33.9076 152.2379 87° East 419 482 24,300 1,600 Climbing Aus
Mon 06:56:53 PM -33.9080 152.2680 87° East 426 490 24,300 1,655 Level FlightAware
Mon 06:57:30 PM -33.9084 152.3759 87° East 420 483 25,900 1,650 Climbing Aus
Mon 06:57:33 PM -33.9090 152.3690 87° East 434 499 25,400 1,459 Descending FlightAware
Mon 06:58:07 PM -33.9093 152.4659 87° East 433 498 26,800 1,600 Climbing Aus
Mon 06:58:18 PM -33.9090 152.4790 87° East 441 507 26,600 824 Descending FlightAware
Mon 06:58:58 PM -33.9100 152.5820 91° East 447 514 27,500 1,831 Climbing FlightAware
Mon 06:59:17 PM -33.9099 152.6385 91° East 441 507 28,400 1,941 Climbing Aus
Mon 06:59:32 PM -33.9087 152.6759 88° East 444 511 28,600 146 Climbing Aus
Mon 06:59:58 PM -33.8960 152.7190 88° East 458 527 28,500 727 Descending FlightAware
Mon 07:00:38 PM -33.8470 152.8080 56° Northeast 462 532 29,400 1,440 Climbing FlightAware
Mon 07:01:13 PM -33.7990 152.8890 56° Northeast 462 532 30,300 2,308 Climbing FlightAware
Mon 07:01:17 PM -33.7906 152.9032 56° Northeast 463 533 30,900 2,842 Climbing Aus
Mon 07:01:32 PM -33.7717 152.9342 56° Northeast 463 533 31,200 732 Climbing Aus
Mon 07:01:58 PM -33.7430 152.9820 56° Northeast 462 532 31,400 930 Climbing FlightAware
Mon 07:02:43 PM -33.6890 153.0700 54° Northeast 462 532 32,300 1,565 Climbing FlightAware
Mon 07:03:07 PM -33.6525 153.1313 54° Northeast 465 535 33,200 1,050 Climbing Aus
Mon 07:03:23 PM -33.6400 153.1530 54° Northeast 464 534 33,000 343 Descending FlightAware
Mon 07:03:42 PM -33.6085 153.2042 54° Northeast 465 535 33,400  Climbing Aus
Mon 07:04:03 PM -33.5860 153.2420 54° Northeast 466 536 33,000  Descending FlightAware
Mon 07:04:47 PM -33.5269 153.3400 54° Northeast 464 534 33,400  Climbing Aus
Mon 07:04:58 PM -33.5180 153.3550 54° Northeast 465 535 33,000 -471 Descending FlightAware
Mon 07:05:38 PM -33.4670 153.4390 54° Northeast 464 534 33,000 358 Level FlightAware
Mon 07:06:05 PM -33.4279 153.5018 54° Northeast 451 519 33,400 571 Climbing Aus
Mon 07:06:20 PM -33.4091 153.5325 54° Northeast 450 518 33,400 -1,043 Level Aus
Mon 07:06:28 PM -33.4060 153.5380 54° Northeast 463 533 33,000  Descending FlightAware
Mon 07:06:55 PM -33.3649 153.6045 54° Northeast 449 517 33,400  Climbing Aus
Mon 07:07:08 PM -33.3540 153.6220 54° Northeast 462 532 33,000 -500 Descending FlightAware
Mon 07:07:43 PM -33.3110 153.6930 54° Northeast 461 531 33,000 558 Level FlightAware
Mon 07:07:51 PM -33.2931 153.7218 54° Northeast 462 532 33,400 558 Climbing Aus
Mon 07:08:26 PM -33.2487 153.7933 54° Northeast 461 531 33,400 -649 Level Aus
Mon 07:08:28 PM -33.2530 153.7860 54° Northeast 461 531 33,000 -511 Descending FlightAware
Mon 07:09:13 PM -33.1990 153.8730 53° Northeast 460 529 33,000  Level FlightAware
Mon 07:09:58 PM -33.1380 153.9730 54° Northeast 461 531 33,000 273 Level FlightAware
Mon 07:10:19 PM -33.1059 154.0238 54° Northeast 447 514 33,300  Climbing Aus
Mon 07:10:38 PM -33.0870 154.0540 54° Northeast 459 528 33,000  Descending FlightAware
Mon 07:10:56 PM -33.0598 154.0995 54° Northeast 459 528 33,300 545 Climbing Aus
Mon 07:11:11 PM -33.0409 154.1301 54° Northeast 459 528 33,300 -667 Level Aus
Mon 07:11:23 PM -33.0330 154.1420 54° Northeast 459 528 33,000  Descending FlightAware
Mon 07:11:46 PM -32.9962 154.2013 54° Northeast 461 531 33,300  Climbing Aus
Mon 07:12:13 PM -32.9690 154.2450 54° Northeast 462 532 33,000  Descending FlightAware
Mon 07:12:44 PM -32.9221 154.3194 54° Northeast 447 514 33,300  Climbing Aus
Mon 07:12:58 PM -32.9090 154.3410 54° Northeast 464 534 33,000  Descending FlightAware
Mon 07:13:21 PM -32.8750 154.3954 54° Northeast 463 533 33,300  Climbing Aus
Mon 07:13:43 PM -32.8540 154.4290 54° Northeast 465 535 33,000 -316 Descending FlightAware
Mon 07:14:18 PM -32.8080 154.5030 54° Northeast 466 536 33,000 474 Level FlightAware
Mon 07:14:21 PM -32.7973 154.5190 54° Northeast 465 535 33,300 474 Climbing Aus
Mon 07:14:56 PM -32.7524 154.5910 54° Northeast 465 535 33,300 -316 Level Aus
Mon 07:15:18 PM -32.7340 154.6200 54° Northeast 467 537 33,000 -290 Descending FlightAware
Mon 07:15:58 PM -32.6770 154.7100 53° Northeast 468 539 33,000 310 Level FlightAware
Mon 07:16:16 PM -32.6486 154.7552 53° Northeast 467 537 33,300 545 Climbing Aus
Mon 07:16:31 PM -32.6290 154.7858 53° Northeast 467 537 33,300 -429 Level Aus
Mon 07:16:58 PM -32.6020 154.8290 53° Northeast 467 537 33,000 -269 Descending FlightAware
Mon 07:17:38 PM -32.5510 154.9090 53° Northeast 466 536 33,000 250 Level FlightAware
Mon 07:18:10 PM -32.5004 154.9909 53° Northeast 466 536 33,300  Climbing Aus
Mon 07:18:23 PM -32.4960 154.9990 53° Northeast 466 536 33,000  Descending FlightAware
Mon 07:18:45 PM -32.4591 155.0641 53° Northeast 459 528 33,300  Climbing Aus
Mon 07:19:03 PM -32.4440 155.0870 53° Northeast 466 536 33,000 -310 Descending FlightAware
Mon 07:19:43 PM -32.3990 155.1620 55° Northeast 466 536 33,000  Level FlightAware
Mon 07:20:28 PM -32.3400 155.2580 54° Northeast 467 537 33,000 269 Level FlightAware
Mon 07:20:50 PM -32.3015 155.3233 54° Northeast 465 535 33,300  Climbing Aus
Mon 07:21:13 PM -32.2810 155.3570 54° Northeast 471 542 33,000  Descending FlightAware
Mon 07:21:40 PM -32.2380 155.4277 54° Northeast 467 537 33,300  Climbing Aus
Mon 07:21:53 PM -32.2340 155.4330 54° Northeast 471 542 33,000  Descending FlightAware
Mon 07:22:15 PM -32.1935 155.5010 54° Northeast 470 541 33,300  Climbing Aus
Mon 07:22:38 PM -32.1750 155.5300 54° Northeast 473 544 33,000 -286 Descending FlightAware
Mon 07:23:18 PM -32.1310 155.6010 54° Northeast 473 544 33,000 250 Level FlightAware
Mon 07:23:50 PM -32.0717 155.6996 54° Northeast 470 541 33,300  Climbing Aus
Mon 07:23:58 PM -32.0870 155.6720 54° Northeast 473 544 33,000 -375 Descending FlightAware
Mon 07:24:38 PM -32.0440 155.7430 54° Northeast 473 544 33,000 316 Level FlightAware
Mon 07:24:55 PM -31.9920 155.8352 54° Northeast 465 535 33,300  Climbing Aus
Mon 07:25:18 PM -32.0000 155.8140 54° Northeast 473 544 33,000 -247 Descending FlightAware
Mon 07:26:08 PM -31.9450 155.9030 54° Northeast 473 544 33,000  Level FlightAware
Mon 07:26:48 PM -31.9020 155.9740 55° Northeast 473 544 33,000  Level FlightAware
Mon 07:27:28 PM -31.8580 156.0450 54° Northeast 473 544 33,000  Level FlightAware
Mon 07:28:08 PM -31.8140 156.1160 54° Northeast 473 544 33,000  Level FlightAware
Mon 07:28:48 PM -31.7700 156.1870 54° Northeast 473 544 33,000  Level FlightAware
Mon 07:29:38 PM -31.7160 156.2750 54° Northeast 473 544 33,000  Level FlightAware
Mon 07:30:18 PM -31.6720 156.3460 54° Northeast 473 544 33,000  Level FlightAware
Mon 07:30:58 PM -31.6280 156.4160 54° Northeast 473 544 33,000  Level FlightAware
Mon 07:31:14 PM -31.4998 156.6185 233° Southwest 33,000  Level Aus
Mon 07:31:38 PM -31.5840 156.4870 54° Northeast 473 544 33,000  Level FlightAware
Mon 07:34:00 PM -31.3948 156.7886 54° Northeast  Level FlightAware
Mon 07:34:19 PM -31.2548 157.0087 54° Northeast 33,000  Level Aus
Mon 07:36:00 PM -31.1197 157.2221 54° Northeast  Level FlightAware
Mon 07:37:00 PM -31.0394 157.3486 53° Northeast  Level FlightAware
Mon 07:37:29 PM -30.9971 157.4915 340° North 37,000  Level Aus
Mon 07:38:00 PM -30.9588 157.4749 53° Northeast  Level FlightAware
Mon 07:39:00 PM -30.9804 157.4501 58° Northeast  Level FlightAware
Mon 07:39:35 PM -30.8538 157.7574 249° West 37,000  Level Aus
Mon 07:40:00 PM -30.9094 157.5839 58° Northeast  Level FlightAware
Mon 07:41:00 PM -30.7518 157.9456 58° Northeast  Level FlightAware
Mon 07:42:00 PM -30.6797 158.0782 58° Northeast  Level FlightAware
Mon 07:42:28 PM -30.6251 158.1783 138° Southeast 37,000  Level Aus
Mon 07:42:28 PM -30.6251 158.1783 58° Northeast 37,000  Level Aus
Mon 07:44:00 PM -30.5140 158.3810 58° Northeast  Level FlightAware
Mon 07:45:00 PM -30.4414 158.5129 57° Northeast  Level FlightAware
Mon 07:46:00 PM -30.3687 158.6447 57° Northeast  Level FlightAware
Mon 07:47:00 PM -30.2958 158.7762 57° Northeast  Level FlightAware
Mon 07:48:00 PM -30.2229 158.9076 58° Northeast  Level FlightAware
Mon 07:49:00 PM -30.1498 159.0388 57° Northeast  Level FlightAware
Mon 07:50:00 PM -30.0765 159.1698 57° Northeast  Level FlightAware
Mon 07:51:00 PM -30.0031 159.3006 57° Northeast  Level FlightAware
Mon 07:52:00 PM -29.9296 159.4312 57° Northeast  Level FlightAware
Mon 07:53:00 PM -29.8560 159.5615 57° Northeast  Level FlightAware
Mon 07:54:00 PM -29.7822 159.6917 57° Northeast  Level FlightAware
Mon 07:55:00 PM -29.7083 159.8217 57° Northeast  Level FlightAware
Mon 07:55:08 PM -29.6835 159.8654 57° Northeast 37,000  Level Aus
Mon 07:55:44 PM -29.6266 159.9650 57° Northeast 37,000  Level Aus
Mon 07:57:00 PM -29.5451 160.1074 57° Northeast  Level FlightAware
Mon 07:57:27 PM -29.4886 160.2059 57° Northeast 37,000  Level Aus
Mon 07:58:00 PM -29.4584 160.2585 57° Northeast  Level FlightAware
Mon 07:59:00 PM -29.3732 160.4061 57° Northeast  Level FlightAware
Mon 08:00:00 PM -29.2986 160.5351 56° Northeast  Level FlightAware
Mon 08:01:00 PM -29.2239 160.6639 56° Northeast  Level FlightAware
Mon 08:02:00 PM -29.1491 160.7924 56° Northeast  Level FlightAware
Mon 08:03:00 PM -29.0742 160.9209 56° Northeast  Level FlightAware
Mon 08:03:22 PM -29.0210 161.0116 56° Northeast 37,000  Level Aus
Mon 08:05:00 PM -28.8982 161.2207 56° Northeast  Level FlightAware
Mon 08:05:44 PM -28.8365 161.3252 56° Northeast 37,000  Level Aus
Mon 08:06:00 PM -28.8228 161.3484 56° Northeast  Level FlightAware
Mon 08:07:00 PM -28.7409 161.4869 56° Northeast  Level FlightAware
Mon 08:08:00 PM -28.6653 161.6142 56° Northeast  Level FlightAware
Mon 08:09:00 PM -28.5896 161.7415 56° Northeast  Level FlightAware
Mon 08:09:01 PM -28.6020 161.7206 56° Northeast 37,000  Level Aus
Mon 08:10:00 PM -28.5137 161.8685 56° Northeast  Level FlightAware
Mon 08:11:00 PM -28.4515 161.9724 56° Northeast  Level FlightAware
Mon 08:12:00 PM -28.3754 162.0991 56° Northeast  Level FlightAware
Mon 08:13:00 PM -28.2993 162.2256 56° Northeast  Level FlightAware
Mon 08:14:00 PM -28.2230 162.3519 56° Northeast  Level FlightAware
Mon 08:15:00 PM -28.1478 162.4790 56° Northeast  Level Estimated
Mon 08:16:00 PM -28.0718 162.6054 56° Northeast  Level FlightAware
Mon 08:17:00 PM -27.9957 162.7316 56° Northeast  Level FlightAware
Mon 08:18:00 PM -27.9195 162.8577 56° Northeast  Level FlightAware
Mon 08:19:00 PM -27.8431 162.9835 56° Northeast  Level FlightAware
Mon 08:20:00 PM -27.7667 163.1092 56° Northeast  Level FlightAware
Mon 08:20:50 PM -27.6895 163.2279 143° Southeast 37,000  Level Aus
Mon 08:20:50 PM -27.6895 163.2279 55° Northeast 37,000  Level Aus
Mon 08:22:00 PM -27.6001 163.3741 55° Northeast  Level FlightAware
Mon 08:23:00 PM -27.5234 163.4993 55° Northeast  Level FlightAware
Mon 08:24:00 PM -27.4465 163.6243 55° Northeast  Level FlightAware
Mon 08:25:00 PM -27.3696 163.7492 55° Northeast  Level FlightAware
Mon 08:26:00 PM -27.2925 163.8738 55° Northeast  Level FlightAware
Mon 08:27:00 PM -27.2153 163.9983 55° Northeast  Level FlightAware
Mon 08:28:00 PM -27.1381 164.1226 55° Northeast  Level FlightAware
Mon 08:29:00 PM -27.0607 164.2468 55° Northeast  Level FlightAware
Mon 08:30:00 PM -26.9832 164.3707 55° Northeast  Level FlightAware
Mon 08:31:00 PM -26.9056 164.4945 55° Northeast  Level FlightAware
Mon 08:32:00 PM -26.8279 164.6182 55° Northeast  Level FlightAware
Mon 08:33:00 PM -26.7500 164.7416 55° Northeast  Level FlightAware
Mon 08:34:00 PM -26.6721 164.8649 55° Northeast  Level FlightAware
Mon 08:35:00 PM -26.5941 164.9880 55° Northeast  Level FlightAware
Mon 08:36:00 PM -26.5160 165.1110 55° Northeast  Level FlightAware
Mon 08:37:00 PM -26.4377 165.2338 55° Northeast  Level FlightAware
Mon 08:38:00 PM -26.3594 165.3564 55° Northeast  Level FlightAware
Mon 08:39:00 PM -26.2809 165.4789 54° Northeast  Level FlightAware
Mon 08:40:00 PM -26.2024 165.6011 54° Northeast  Level FlightAware
Mon 08:41:00 PM -26.1237 165.7233 54° Northeast  Level FlightAware
Mon 08:42:00 PM -26.0449 165.8452 54° Northeast  Level FlightAware
Mon 08:43:00 PM -25.9669 165.9677 53° Northeast  Level Estimated
Mon 08:44:00 PM -25.8879 166.0893 54° Northeast  Level FlightAware
Mon 08:45:00 PM -25.8088 166.2107 54° Northeast  Level FlightAware
Mon 08:46:00 PM -25.7296 166.3320 54° Northeast  Level FlightAware
Mon 08:47:00 PM -25.6503 166.4531 54° Northeast  Level FlightAware
Mon 08:48:00 PM -25.5709 166.5741 54° Northeast  Level FlightAware
Mon 08:49:00 PM -25.4914 166.6949 54° Northeast  Level FlightAware
Mon 08:50:00 PM -25.4118 166.8155 54° Northeast  Level FlightAware
Mon 08:51:00 PM -25.3321 166.9360 54° Northeast  Level FlightAware
Mon 08:52:00 PM -25.2523 167.0563 54° Northeast  Level FlightAware
Mon 08:53:00 PM -25.1724 167.1765 54° Northeast  Level FlightAware
Mon 08:54:00 PM -25.0924 167.2965 54° Northeast  Level FlightAware
Mon 08:55:00 PM -25.0123 167.4163 54° Northeast  Level FlightAware
Mon 08:56:00 PM -24.9321 167.5360 54° Northeast  Level FlightAware
Mon 08:57:00 PM -24.8518 167.6555 54° Northeast  Level FlightAware
Mon 08:58:00 PM -24.7715 167.7749 53° Northeast  Level FlightAware
Mon 08:59:00 PM -24.6910 167.8941 53° Northeast  Level FlightAware
Mon 09:00:00 PM -24.6104 168.0132 53° Northeast  Level FlightAware
Mon 09:01:00 PM -24.5298 168.1321 53° Northeast  Level FlightAware
Mon 09:02:00 PM -24.4490 168.2509 53° Northeast  Level FlightAware
Mon 09:03:00 PM -24.3682 168.3695 53° Northeast  Level FlightAware
Mon 09:04:00 PM -24.2872 168.4880 53° Northeast  Level FlightAware
Mon 09:05:00 PM -24.2062 168.6063 53° Northeast  Level FlightAware
Mon 09:06:00 PM -24.1251 168.7244 53° Northeast  Level FlightAware
Mon 09:07:00 PM -24.0439 168.8424 53° Northeast  Level FlightAware
Mon 09:08:00 PM -23.9626 168.9603 53° Northeast  Level FlightAware
Mon 09:09:00 PM -23.8812 169.0780 53° Northeast  Level FlightAware
Mon 09:10:00 PM -23.7997 169.1956 53° Northeast  Level FlightAware
Mon 09:11:00 PM -23.7181 169.3130 53° Northeast  Level FlightAware
Mon 09:12:00 PM -23.6365 169.4303 53° Northeast  Level FlightAware
Mon 09:13:00 PM -23.5547 169.5474 53° Northeast  Level FlightAware
Mon 09:14:00 PM -23.4729 169.6644 53° Northeast  Level FlightAware
Mon 09:15:00 PM -23.3922 169.7822 52° Northeast  Level Estimated
Mon 09:16:00 PM -23.3102 169.8988 53° Northeast  Level FlightAware
Mon 09:17:00 PM -23.2280 170.0154 53° Northeast  Level FlightAware
Mon 09:18:00 PM -23.1458 170.1317 52° Northeast  Level FlightAware
Mon 09:19:00 PM -23.0635 170.2480 52° Northeast  Level FlightAware
Mon 09:20:00 PM -22.9811 170.3641 52° Northeast  Level FlightAware
Mon 09:21:00 PM -22.8987 170.4800 52° Northeast  Level FlightAware
Mon 09:22:00 PM -22.8161 170.5958 52° Northeast  Level FlightAware
Mon 09:23:00 PM -22.7335 170.7115 52° Northeast  Level FlightAware
Mon 09:24:00 PM -22.6508 170.8270 52° Northeast  Level FlightAware
Mon 09:25:00 PM -22.5680 170.9424 52° Northeast  Level FlightAware
Mon 09:26:00 PM -22.4851 171.0577 52° Northeast  Level FlightAware
Mon 09:27:00 PM -22.4021 171.1728 52° Northeast  Level FlightAware
Mon 09:28:00 PM -22.3191 171.2877 52° Northeast  Level FlightAware
Mon 09:29:00 PM -22.2360 171.4026 52° Northeast  Level FlightAware
Mon 09:30:00 PM -22.1528 171.5173 52° Northeast  Level FlightAware
Mon 09:31:00 PM -22.0695 171.6318 52° Northeast  Level FlightAware
Mon 09:32:00 PM -21.9861 171.7463 52° Northeast  Level FlightAware
Mon 09:33:00 PM -21.9027 171.8606 52° Northeast  Level FlightAware
Mon 09:34:00 PM -21.8191 171.9747 52° Northeast  Level FlightAware
Mon 09:35:00 PM -21.7355 172.0888 52° Northeast  Level FlightAware
Mon 09:36:00 PM -21.6518 172.2027 52° Northeast  Level FlightAware
Mon 09:37:00 PM -21.5681 172.3164 52° Northeast  Level FlightAware
Mon 09:38:00 PM -21.4842 172.4301 52° Northeast  Level FlightAware
Mon 09:39:00 PM -21.4003 172.5435 52° Northeast  Level FlightAware
Mon 09:40:00 PM -21.3164 172.6569 52° Northeast  Level FlightAware
Mon 09:41:00 PM -21.2323 172.7702 51° Northeast  Level FlightAware
Mon 09:42:00 PM -21.1481 172.8833 51° Northeast  Level FlightAware
Mon 09:43:00 PM -21.0639 172.9962 51° Northeast  Level FlightAware
Mon 09:44:00 PM -20.9797 173.1091 51° Northeast  Level FlightAware
Mon 09:45:00 PM -20.8953 173.2218 51° Northeast  Level FlightAware
Mon 09:46:00 PM -20.8109 173.3344 51° Northeast  Level FlightAware
Mon 09:47:00 PM -20.7263 173.4469 51° Northeast  Level FlightAware
Mon 09:48:00 PM -20.6418 173.5593 51° Northeast  Level FlightAware
Mon 09:49:00 PM -20.5571 173.6715 51° Northeast  Level FlightAware
Mon 09:50:00 PM -20.4724 173.7836 51° Northeast  Level FlightAware
Mon 09:51:00 PM -20.3876 173.8956 51° Northeast  Level FlightAware
Mon 09:52:00 PM -20.3027 174.0074 51° Northeast  Level FlightAware
Mon 09:53:00 PM -20.2178 174.1192 51° Northeast  Level FlightAware
Mon 09:54:00 PM -20.1327 174.2308 51° Northeast  Level FlightAware
Mon 09:55:00 PM -20.0506 174.3447 50° Northeast  Level Estimated
Mon 09:56:00 PM -19.9653 174.4559 51° Northeast  Level FlightAware
Mon 09:57:00 PM -19.8799 174.5671 51° Northeast  Level FlightAware
Mon 09:58:00 PM -19.7945 174.6781 51° Northeast  Level FlightAware
Mon 09:59:00 PM -19.7090 174.7890 51° Northeast  Level FlightAware
Mon 10:00:00 PM -19.6235 174.8998 51° Northeast  Level FlightAware
Mon 10:01:00 PM -19.5379 175.0105 51° Northeast  Level FlightAware
Mon 10:02:00 PM -19.4522 175.1210 51° Northeast  Level FlightAware
Mon 10:03:00 PM -19.3664 175.2314 51° Northeast  Level FlightAware
Mon 10:04:00 PM -19.2806 175.3418 51° Northeast  Level FlightAware
Mon 10:05:00 PM -19.1947 175.4520 50° Northeast  Level FlightAware
Mon 10:06:00 PM -19.1088 175.5620 50° Northeast  Level FlightAware
Mon 10:07:00 PM -19.0228 175.6720 50° Northeast  Level FlightAware
Mon 10:08:00 PM -18.9420 175.7863 156° South  Level Estimated
Mon 10:09:00 PM -18.8612 175.9005 156° South  Level Estimated
Mon 10:10:00 PM -18.7803 176.0146 156° South  Level Estimated
Mon 10:11:00 PM -18.6993 176.1286 156° South  Level Estimated
Mon 10:12:00 PM -18.6183 176.2424 156° South  Level Estimated
Mon 10:13:00 PM -18.5372 176.3562 156° South  Level Estimated
Mon 10:14:00 PM -18.4561 176.4698 156° South  Level Estimated
Mon 10:15:00 PM -18.3748 176.5833 156° South  Level Estimated
Mon 10:16:00 PM -18.2935 176.6968 156° South  Level Estimated
Mon 10:17:00 PM -18.2122 176.8101 156° South  Level Estimated
Mon 10:18:00 PM -18.1307 176.9233 156° South  Level Estimated
Mon 10:19:00 PM -18.0492 177.0364 156° South  Level Estimated
Mon 10:20:00 PM -17.9677 177.1494 156° South  Level Estimated
Mon 10:21:00 PM -17.8860 177.2623 156° South  Level Estimated
Mon 10:22:00 PM -17.8043 177.3751 156° South  Level Estimated
Mon 10:23:00 PM -17.7564 177.4433 156° South  Level FlightAware
Mon 10:24:00 PM -17.7547 177.4436 156° South  Level Estimated
Mon 10:25:00 PM -17.7564 177.4433 156° South  Level FlightAware
Mon 10:26:00 PM -17.7547 177.4436 156° South  Level Estimated
Mon 10:27:00 PM -17.7564 177.4433 156° South  Level FlightAware
Mon 10:28:00 PM -17.7547 177.4436 156° South  Level Estimated
Mon 10:29:00 PM -17.7564 177.4433 156° South  Level FlightAware

Login

Don't have an account? Register now (free) for customized features, flight alerts, and more!